1892 NOT_NAMED (1892198N18139)


IBTrACS version v04r00. Visit IBTrACS website for data access.
Please direct all questions to the IBTrACS Q and A forum

Storm track - Intensity - Wind Radii - Intensity Data - Source Data - All data

Summary Information

Storm ID 1892198N18139
Start Jul 15 16Z
End Jul 21 04Z
ATCF IDs
Track status Best track data.

Storm track plot

Map of storm track

Intensity plots

No Intensity information for this storm


Radial wind information

No radial wind information for this storm


Position and Intensity Table

BASIN ISO_TIME_________ NATURE LAT LON
degrees north degrees east
WP 1892-07-15 16:00:00 NR 17.60 138.60
WP 18:00:00 NR 17.60 138.43
WP 21:00:00 NR 17.60 138.18
WP 1892-07-16 00:00:00 NR 17.62 137.93
WP 03:00:00 NR 17.67 137.68
WP 04:00:00 NR 17.70 137.60
WP 06:00:00 NR 17.77 137.44
WP 09:00:00 NR 17.91 137.20
WP 12:00:00 NR 18.07 136.95
WP 15:00:00 NR 18.24 136.69
WP 16:00:00 NR 18.30 136.60
WP 18:00:00 NR 18.40 136.40
WP 21:00:00 NR 18.54 136.09
WP 1892-07-17 00:00:00 NR 18.69 135.78
WP 03:00:00 NR 18.85 135.49
WP 04:00:00 NR 18.90 135.40
WP 06:00:00 NR 19.01 135.24
WP 09:00:00 NR 19.17 135.01
WP 12:00:00 NR 19.35 134.82
WP 15:00:00 NR 19.53 134.65
WP 16:00:00 NR 19.60 134.60
WP 18:00:00 NR 19.74 134.50
WP 21:00:00 NR 19.95 134.37
WP 1892-07-18 00:00:00 NR 20.18 134.25
WP 03:00:00 NR 20.42 134.14
WP 04:00:00 NR 20.50 134.10
WP 06:00:00 NR 20.66 134.02
WP 09:00:00 NR 20.90 133.90
WP 12:00:00 NR 21.15 133.77
WP 15:00:00 NR 21.41 133.64
WP 16:00:00 NR 21.50 133.60
WP 18:00:00 NR 21.69 133.50
WP 21:00:00 NR 21.98 133.34
WP 1892-07-19 00:00:00 NR 22.29 133.19
WP 03:00:00 NR 22.60 133.04
WP 04:00:00 NR 22.70 133.00
WP 06:00:00 NR 22.90 132.92
WP 09:00:00 NR 23.20 132.80
WP 12:00:00 NR 23.50 132.71
WP 15:00:00 NR 23.80 132.62
WP 16:00:00 NR 23.90 132.60
WP 18:00:00 NR 24.09 132.55
WP 21:00:00 NR 24.39 132.49
WP 1892-07-20 00:00:00 NR 24.68 132.45
WP 03:00:00 NR 24.99 132.41
WP 04:00:00 NR 25.10 132.40
WP 06:00:00 NR 25.32 132.38
WP 09:00:00 NR 25.67 132.35
WP 12:00:00 NR 26.02 132.33
WP 15:00:00 NR 26.38 132.31
WP 16:00:00 NR 26.50 132.30
WP 18:00:00 NR 26.74 132.29
WP 21:00:00 NR 27.09 132.26
WP 1892-07-21 00:00:00 NR 27.44 132.24
WP 03:00:00 NR 27.78 132.21
WP 04:00:00 NR 27.90 132.20

Source Information

Agency Information
USA
TOKYO
CMA
HKO
NEWDELHI
REUNION
BOM
NADI
WELLINGTON
DS824
TD9636 cons_worldwide_trop_cyclone_18710101-19891231-003:Line=993
TD9635
NEUMANN
MLC

All available IBTrACS Data

SEASON BASIN SUBBASIN ISO_TIME_________ NATURE LAT LON DIST2LAND LANDFALL IFLAG USA SSHS TD9636 LAT TD9636 LON TD9636 STAGE STORM SPEED STORM DIR
Year degrees north degrees east km km 1 degrees north degrees east kts degrees
1892 WP MM 1892-07-15 16:00:00 NR 17.60 138.60 1531 1512 __________O___ -1 17.60 138.60 7 5 268
1892 WP MM 18:00:00 NR 17.60 138.43 1512 1492 __________P___ -1 17.60 138.43 7 5 269
1892 WP MM 21:00:00 NR 17.60 138.18 1492 1462 __________P___ -1 17.60 138.18 7 5 273
1892 WP MM 1892-07-16 00:00:00 NR 17.62 137.93 1462 1447 __________P___ -1 17.62 137.93 7 5 279
1892 WP MM 03:00:00 NR 17.67 137.68 1447 1438 __________P___ -1 17.67 137.68 7 5 285
1892 WP MM 04:00:00 NR 17.70 137.60 1438 1423 __________O___ -1 17.70 137.60 7 5 293
1892 WP MM 06:00:00 NR 17.77 137.44 1423 1408 __________P___ -1 17.77 137.44 7 5 299
1892 WP MM 09:00:00 NR 17.91 137.20 1408 1390 __________P___ -1 17.91 137.20 7 6 303
1892 WP MM 12:00:00 NR 18.07 136.95 1390 1376 __________P___ -1 18.07 136.95 7 6 305
1892 WP MM 15:00:00 NR 18.24 136.69 1376 1372 __________P___ -1 18.24 136.69 7 6 304
1892 WP MM 16:00:00 NR 18.30 136.60 1372 1359 __________O___ -1 18.30 136.60 7 6 299
1892 WP MM 18:00:00 NR 18.40 136.40 1359 1337 __________P___ -1 18.40 136.40 7 7 297
1892 WP MM 21:00:00 NR 18.54 136.09 1337 1321 __________P___ -1 18.54 136.09 7 7 297
1892 WP MM 1892-07-17 00:00:00 NR 18.69 135.78 1321 1301 __________P___ -1 18.69 135.78 7 6 298
1892 WP MM 03:00:00 NR 18.85 135.49 1301 1298 __________P___ -1 18.85 135.49 7 6 300
1892 WP MM 04:00:00 NR 18.90 135.40 1298 1285 __________O___ -1 18.90 135.40 7 6 303
1892 WP MM 06:00:00 NR 19.01 135.24 1285 1270 __________P___ -1 19.01 135.24 7 5 306
1892 WP MM 09:00:00 NR 19.17 135.01 1275 1262 __________P___ -1 19.17 135.01 7 5 311
1892 WP MM 12:00:00 NR 19.35 134.82 1262 1257 __________P___ -1 19.35 134.82 7 5 317
1892 WP MM 15:00:00 NR 19.53 134.65 1263 1253 __________P___ -1 19.53 134.65 7 5 321
1892 WP MM 16:00:00 NR 19.60 134.60 1259 1255 __________O___ -1 19.60 134.60 7 5 325
1892 WP MM 18:00:00 NR 19.74 134.50 1255 1252 __________P___ -1 19.74 134.50 7 5 328
1892 WP MM 21:00:00 NR 19.95 134.37 1263 1254 __________P___ -1 19.95 134.37 7 5 332
1892 WP MM 1892-07-18 00:00:00 NR 20.18 134.25 1259 1231 __________P___ -1 20.18 134.25 7 5 335
1892 WP MM 03:00:00 NR 20.42 134.14 1231 1221 __________P___ -1 20.42 134.14 7 5 336
1892 WP MM 04:00:00 NR 20.50 134.10 1221 1196 __________O___ -1 20.50 134.10 7 5 334
1892 WP MM 06:00:00 NR 20.66 134.02 1196 1172 __________P___ -1 20.66 134.02 7 5 334
1892 WP MM 09:00:00 NR 20.90 133.90 1172 1148 __________P___ -1 20.90 133.90 7 5 335
1892 WP MM 12:00:00 NR 21.15 133.77 1148 1110 __________P___ -1 21.15 133.77 7 6 335
1892 WP MM 15:00:00 NR 21.41 133.64 1110 1099 __________P___ -1 21.41 133.64 7 6 336
1892 WP MM 16:00:00 NR 21.50 133.60 1099 1075 __________O___ -1 21.50 133.60 7 6 334
1892 WP MM 18:00:00 NR 21.69 133.50 1075 1037 __________P___ -1 21.69 133.50 7 7 334
1892 WP MM 21:00:00 NR 21.98 133.34 1037 1002 __________P___ -1 21.98 133.34 7 7 334
1892 WP MM 1892-07-19 00:00:00 NR 22.29 133.19 1002 965 __________P___ -1 22.29 133.19 7 7 336
1892 WP MM 03:00:00 NR 22.60 133.04 965 954 __________P___ -1 22.60 133.04 7 7 337
1892 WP MM 04:00:00 NR 22.70 133.00 954 930 __________O___ -1 22.70 133.00 7 7 339
1892 WP MM 06:00:00 NR 22.90 132.92 930 895 __________P___ -1 22.90 132.92 7 6 340
1892 WP MM 09:00:00 NR 23.20 132.80 895 860 __________P___ -1 23.20 132.80 7 6 342
1892 WP MM 12:00:00 NR 23.50 132.71 860 825 __________P___ -1 23.50 132.71 7 6 345
1892 WP MM 15:00:00 NR 23.80 132.62 825 814 __________P___ -1 23.80 132.62 7 6 347
1892 WP MM 16:00:00 NR 23.90 132.60 814 792 __________O___ -1 23.90 132.60 7 6 348
1892 WP MM 18:00:00 NR 24.09 132.55 792 757 __________P___ -1 24.09 132.55 7 6 349
1892 WP MM 21:00:00 NR 24.39 132.49 757 722 __________P___ -1 24.39 132.49 7 6 351
1892 WP MM 1892-07-20 00:00:00 NR 24.68 132.45 722 690 __________P___ -1 24.68 132.45 7 6 353
1892 WP MM 03:00:00 NR 24.99 132.41 690 679 __________P___ -1 24.99 132.41 7 6 356
1892 WP MM 04:00:00 NR 25.10 132.40 679 657 __________O___ -1 25.10 132.40 7 7 353
1892 WP MM 06:00:00 NR 25.32 132.38 657 614 __________P___ -1 25.32 132.38 7 7 355
1892 WP MM 09:00:00 NR 25.67 132.35 614 579 __________P___ -1 25.67 132.35 7 7 356
1892 WP MM 12:00:00 NR 26.02 132.33 579 536 __________P___ -1 26.02 132.33 7 7 357
1892 WP MM 15:00:00 NR 26.38 132.31 536 525 __________P___ -1 26.38 132.31 7 7 357
1892 WP MM 16:00:00 NR 26.50 132.30 525 504 __________O___ -1 26.50 132.30 7 7 358
1892 WP MM 18:00:00 NR 26.74 132.29 504 462 __________P___ -1 26.74 132.29 7 7 357
1892 WP MM 21:00:00 NR 27.09 132.26 462 427 __________P___ -1 27.09 132.26 7 7 356
1892 WP MM 1892-07-21 00:00:00 NR 27.44 132.24 427 385 __________P___ -1 27.44 132.24 7 7 358
1892 WP MM 03:00:00 NR 27.78 132.21 385 375 __________P___ -1 27.78 132.21 7 7 355
1892 WP MM 04:00:00 NR 27.90 132.20 375 __________O___ -1 27.90 132.20 7 7 347